sensor_id;sensor_type;location;lat;lon;timestamp;pressure;altitude;pressure_sealevel;temperature;humidity
55733;BME280;41637;52.364;9.910;2022-12-17T00:02:36;101426.15;;;-2.70;88.36
55733;BME280;41637;52.364;9.910;2022-12-17T00:05:21;101421.02;;;-2.75;88.53
55733;BME280;41637;52.364;9.910;2022-12-17T00:08:07;101426.66;;;-2.77;89.02
55733;BME280;41637;52.364;9.910;2022-12-17T00:10:52;101432.12;;;-2.79;89.57
55733;BME280;41637;52.364;9.910;2022-12-17T00:13:37;101440.06;;;-2.79;89.23
55733;BME280;41637;52.364;9.910;2022-12-17T00:16:22;101444.71;;;-2.78;89.36
55733;BME280;41637;52.364;9.910;2022-12-17T00:19:07;101443.18;;;-2.75;89.40
55733;BME280;41637;52.364;9.910;2022-12-17T00:21:52;101445.81;;;-2.72;89.59
55733;BME280;41637;52.364;9.910;2022-12-17T00:24:38;101447.91;;;-2.69;89.38
55733;BME280;41637;52.364;9.910;2022-12-17T00:27:23;101443.51;;;-2.68;89.16
55733;BME280;41637;52.364;9.910;2022-12-17T00:30:08;101445.78;;;-2.68;89.23
55733;BME280;41637;52.364;9.910;2022-12-17T00:32:54;101452.39;;;-2.69;89.17
55733;BME280;41637;52.364;9.910;2022-12-17T00:35:39;101458.14;;;-2.69;89.20
55733;BME280;41637;52.364;9.910;2022-12-17T00:38:24;101458.13;;;-2.69;88.95
55733;BME280;41637;52.364;9.910;2022-12-17T00:41:09;101459.55;;;-2.70;88.98
55733;BME280;41637;52.364;9.910;2022-12-17T00:43:54;101465.20;;;-2.72;89.17
55733;BME280;41637;52.364;9.910;2022-12-17T00:46:39;101470.68;;;-2.75;89.10
55733;BME280;41637;52.364;9.910;2022-12-17T00:49:25;101468.11;;;-2.79;89.03
55733;BME280;41637;52.364;9.910;2022-12-17T00:52:10;101468.77;;;-2.82;88.98
55733;BME280;41637;52.364;9.910;2022-12-17T00:54:54;101467.77;;;-2.83;88.89
55733;BME280;41637;52.364;9.910;2022-12-17T00:57:39;101466.38;;;-2.83;88.99
55733;BME280;41637;52.364;9.910;2022-12-17T01:00:24;101468.02;;;-2.85;88.96
55733;BME280;41637;52.364;9.910;2022-12-17T01:03:11;101475.20;;;-2.87;89.11
55733;BME280;41637;52.364;9.910;2022-12-17T01:06:00;101469.90;;;-2.88;88.98
55733;BME280;41637;52.364;9.910;2022-12-17T01:08:46;101479.33;;;-2.94;88.75
55733;BME280;41637;52.364;9.910;2022-12-17T01:11:31;101485.69;;;-3.01;88.66
55733;BME280;41637;52.364;9.910;2022-12-17T01:14:17;101490.02;;;-3.04;88.69
55733;BME280;41637;52.364;9.910;2022-12-17T01:17:02;101496.35;;;-3.07;88.66
55733;BME280;41637;52.364;9.910;2022-12-17T01:19:47;101503.48;;;-3.08;88.77
55733;BME280;41637;52.364;9.910;2022-12-17T01:22:32;101505.00;;;-3.11;88.52
55733;BME280;41637;52.364;9.910;2022-12-17T01:25:21;101506.66;;;-3.13;88.47
55733;BME280;41637;52.364;9.910;2022-12-17T01:28:06;101512.61;;;-3.15;88.49
55733;BME280;41637;52.364;9.910;2022-12-17T01:30:52;101514.44;;;-3.17;88.61
55733;BME280;41637;52.364;9.910;2022-12-17T01:34:00;101519.41;;;-3.20;88.45
55733;BME280;41637;52.364;9.910;2022-12-17T01:36:45;101525.70;;;-3.21;88.59
55733;BME280;41637;52.364;9.910;2022-12-17T01:39:30;101527.69;;;-3.19;88.69
55733;BME280;41637;52.364;9.910;2022-12-17T01:42:15;101532.06;;;-3.17;89.05
55733;BME280;41637;52.364;9.910;2022-12-17T01:45:01;101537.02;;;-3.19;88.62
55733;BME280;41637;52.364;9.910;2022-12-17T01:47:50;101541.00;;;-3.19;88.73
55733;BME280;41637;52.364;9.910;2022-12-17T01:50:38;101545.25;;;-3.18;88.69
55733;BME280;41637;52.364;9.910;2022-12-17T01:53:28;101547.23;;;-3.15;88.78
55733;BME280;41637;52.364;9.910;2022-12-17T01:56:15;101545.39;;;-3.17;88.47
55733;BME280;41637;52.364;9.910;2022-12-17T01:59:01;101547.25;;;-3.16;88.50
55733;BME280;41637;52.364;9.910;2022-12-17T02:01:47;101539.63;;;-3.15;88.66
55733;BME280;41637;52.364;9.910;2022-12-17T02:04:32;101543.34;;;-3.13;88.65
55733;BME280;41637;52.364;9.910;2022-12-17T02:07:39;101549.89;;;-3.13;88.53
55733;BME280;41637;52.364;9.910;2022-12-17T02:10:49;101552.60;;;-3.15;88.32
55733;BME280;41637;52.364;9.910;2022-12-17T02:13:41;101553.54;;;-3.13;88.68
55733;BME280;41637;52.364;9.910;2022-12-17T02:16:32;101553.16;;;-3.12;88.45
55733;BME280;41637;52.364;9.910;2022-12-17T02:19:39;101550.39;;;-3.12;88.50
55733;BME280;41637;52.364;9.910;2022-12-17T02:28:15;101548.35;;;-3.21;88.70
55733;BME280;41637;52.364;9.910;2022-12-17T02:31:00;101549.23;;;-3.18;88.83
55733;BME280;41637;52.364;9.910;2022-12-17T02:33:46;101550.73;;;-3.16;88.85
55733;BME280;41637;52.364;9.910;2022-12-17T02:36:33;101554.27;;;-3.14;88.95
55733;BME280;41637;52.364;9.910;2022-12-17T02:39:20;101555.90;;;-3.12;88.78
55733;BME280;41637;52.364;9.910;2022-12-17T02:42:06;101559.25;;;-3.09;89.08
55733;BME280;41637;52.364;9.910;2022-12-17T02:44:50;101557.52;;;-3.05;89.13
55733;BME280;41637;52.364;9.910;2022-12-17T02:47:36;101558.86;;;-3.04;89.07
55733;BME280;41637;52.364;9.910;2022-12-17T02:50:22;101562.33;;;-3.04;88.96
55733;BME280;41637;52.364;9.910;2022-12-17T02:53:07;101565.20;;;-3.03;88.83
55733;BME280;41637;52.364;9.910;2022-12-17T02:55:52;101564.29;;;-3.01;88.89
55733;BME280;41637;52.364;9.910;2022-12-17T02:58:37;101566.36;;;-3.01;88.87
55733;BME280;41637;52.364;9.910;2022-12-17T03:01:22;101564.17;;;-3.03;88.53
55733;BME280;41637;52.364;9.910;2022-12-17T03:04:07;101565.30;;;-3.05;88.70
55733;BME280;41637;52.364;9.910;2022-12-17T03:06:52;101572.11;;;-3.10;88.58
55733;BME280;41637;52.364;9.910;2022-12-17T03:09:37;101573.23;;;-3.16;88.49
55733;BME280;41637;52.364;9.910;2022-12-17T03:12:22;101572.13;;;-3.19;88.64
55733;BME280;41637;52.364;9.910;2022-12-17T03:15:07;101576.33;;;-3.20;88.70
55733;BME280;41637;52.364;9.910;2022-12-17T03:17:52;101575.48;;;-3.20;88.83
55733;BME280;41637;52.364;9.910;2022-12-17T03:20:37;101575.96;;;-3.23;88.70
55733;BME280;41637;52.364;9.910;2022-12-17T03:23:25;101575.41;;;-3.28;88.74
55733;BME280;41637;52.364;9.910;2022-12-17T03:26:10;101583.70;;;-3.27;89.04
55733;BME280;41637;52.364;9.910;2022-12-17T03:28:55;101583.15;;;-3.26;88.94
55733;BME280;41637;52.364;9.910;2022-12-17T03:31:40;101586.20;;;-3.24;89.08
55733;BME280;41637;52.364;9.910;2022-12-17T03:34:25;101592.17;;;-3.22;88.98
55733;BME280;41637;52.364;9.910;2022-12-17T03:37:10;101593.64;;;-3.20;89.07
55733;BME280;41637;52.364;9.910;2022-12-17T03:39:55;101594.30;;;-3.16;89.33
55733;BME280;41637;52.364;9.910;2022-12-17T03:42:41;101594.09;;;-3.10;89.23
55733;BME280;41637;52.364;9.910;2022-12-17T03:45:26;101590.65;;;-3.07;89.21
55733;BME280;41637;52.364;9.910;2022-12-17T03:48:31;101590.21;;;-3.05;89.03
55733;BME280;41637;52.364;9.910;2022-12-17T03:51:16;101596.34;;;-3.02;89.08
55733;BME280;41637;52.364;9.910;2022-12-17T03:54:01;101593.83;;;-3.00;88.88
55733;BME280;41637;52.364;9.910;2022-12-17T03:56:46;101598.42;;;-2.98;88.84
55733;BME280;41637;52.364;9.910;2022-12-17T03:59:35;101599.71;;;-2.97;88.62
55733;BME280;41637;52.364;9.910;2022-12-17T04:02:20;101600.14;;;-2.98;88.47
55733;BME280;41637;52.364;9.910;2022-12-17T04:05:06;101597.11;;;-3.00;88.45
55733;BME280;41637;52.364;9.910;2022-12-17T04:07:51;101600.63;;;-3.01;88.37
55733;BME280;41637;52.364;9.910;2022-12-17T04:10:36;101601.64;;;-3.05;88.16
55733;BME280;41637;52.364;9.910;2022-12-17T04:13:22;101599.69;;;-3.08;88.04
55733;BME280;41637;52.364;9.910;2022-12-17T04:16:08;101604.19;;;-3.08;88.27
55733;BME280;41637;52.364;9.910;2022-12-17T04:18:53;101604.98;;;-3.06;88.24
55733;BME280;41637;52.364;9.910;2022-12-17T04:21:38;101603.11;;;-3.07;88.00
55733;BME280;41637;52.364;9.910;2022-12-17T04:24:23;101601.98;;;-3.09;88.06
55733;BME280;41637;52.364;9.910;2022-12-17T04:27:08;101604.80;;;-3.10;87.82
55733;BME280;41637;52.364;9.910;2022-12-17T04:29:53;101604.59;;;-3.13;87.69
55733;BME280;41637;52.364;9.910;2022-12-17T04:32:38;101609.66;;;-3.14;87.79
55733;BME280;41637;52.364;9.910;2022-12-17T04:35:23;101611.69;;;-3.14;87.82
55733;BME280;41637;52.364;9.910;2022-12-17T04:38:08;101615.70;;;-3.10;87.75
55733;BME280;41637;52.364;9.910;2022-12-17T04:40:53;101615.64;;;-3.09;87.54
55733;BME280;41637;52.364;9.910;2022-12-17T04:43:38;101615.48;;;-3.09;87.23
55733;BME280;41637;52.364;9.910;2022-12-17T04:46:31;101614.74;;;-3.12;87.13
55733;BME280;41637;52.364;9.910;2022-12-17T04:49:16;101613.92;;;-3.13;87.17
55733;BME280;41637;52.364;9.910;2022-12-17T04:52:02;101614.27;;;-3.13;87.29
55733;BME280;41637;52.364;9.910;2022-12-17T04:54:46;101616.76;;;-3.11;87.34
55733;BME280;41637;52.364;9.910;2022-12-17T04:57:32;101615.58;;;-3.11;87.06
55733;BME280;41637;52.364;9.910;2022-12-17T05:00:18;101619.00;;;-3.15;86.76
55733;BME280;41637;52.364;9.910;2022-12-17T05:03:11;101619.88;;;-3.19;86.83
55733;BME280;41637;52.364;9.910;2022-12-17T05:05:56;101618.61;;;-3.22;86.81
55733;BME280;41637;52.364;9.910;2022-12-17T05:08:41;101623.84;;;-3.23;86.84
55733;BME280;41637;52.364;9.910;2022-12-17T05:11:27;101626.08;;;-3.22;86.74
55733;BME280;41637;52.364;9.910;2022-12-17T05:14:12;101630.27;;;-3.23;86.59
55733;BME280;41637;52.364;9.910;2022-12-17T05:16:57;101629.21;;;-3.28;86.50
55733;BME280;41637;52.364;9.910;2022-12-17T05:19:42;101625.77;;;-3.32;86.48
55733;BME280;41637;52.364;9.910;2022-12-17T05:22:27;101624.23;;;-3.37;86.30
55733;BME280;41637;52.364;9.910;2022-12-17T05:25:12;101623.55;;;-3.41;86.54
55733;BME280;41637;52.364;9.910;2022-12-17T05:27:57;101627.36;;;-3.45;86.47
55733;BME280;41637;52.364;9.910;2022-12-17T05:30:42;101628.63;;;-3.51;86.51
55733;BME280;41637;52.364;9.910;2022-12-17T05:33:34;101636.40;;;-3.56;86.60
55733;BME280;41637;52.364;9.910;2022-12-17T05:36:19;101631.13;;;-3.58;86.53
55733;BME280;41637;52.364;9.910;2022-12-17T05:39:04;101636.02;;;-3.59;86.62
55733;BME280;41637;52.364;9.910;2022-12-17T05:41:50;101638.40;;;-3.58;86.61
55733;BME280;41637;52.364;9.910;2022-12-17T05:44:35;101640.11;;;-3.58;86.58
55733;BME280;41637;52.364;9.910;2022-12-17T05:47:20;101645.36;;;-3.55;86.50
55733;BME280;41637;52.364;9.910;2022-12-17T05:50:05;101647.05;;;-3.54;86.33
55733;BME280;41637;52.364;9.910;2022-12-17T05:52:50;101647.02;;;-3.53;86.06
55733;BME280;41637;52.364;9.910;2022-12-17T05:55:35;101645.54;;;-3.50;86.26
55733;BME280;41637;52.364;9.910;2022-12-17T05:58:20;101648.92;;;-3.49;85.94
55733;BME280;41637;52.364;9.910;2022-12-17T06:01:05;101652.12;;;-3.46;85.92
55733;BME280;41637;52.364;9.910;2022-12-17T06:03:51;101660.76;;;-3.46;85.73
55733;BME280;41637;52.364;9.910;2022-12-17T06:06:36;101661.13;;;-3.46;85.59
55733;BME280;41637;52.364;9.910;2022-12-17T06:09:21;101669.09;;;-3.47;85.65
55733;BME280;41637;52.364;9.910;2022-12-17T06:12:05;101671.66;;;-3.46;85.39
55733;BME280;41637;52.364;9.910;2022-12-17T06:14:50;101675.75;;;-3.45;85.55
55733;BME280;41637;52.364;9.910;2022-12-17T06:17:35;101677.48;;;-3.45;85.23
55733;BME280;41637;52.364;9.910;2022-12-17T06:20:20;101684.01;;;-3.44;85.22
55733;BME280;41637;52.364;9.910;2022-12-17T06:23:08;101691.29;;;-3.44;84.93
55733;BME280;41637;52.364;9.910;2022-12-17T06:25:55;101692.90;;;-3.45;84.87
55733;BME280;41637;52.364;9.910;2022-12-17T06:28:41;101699.07;;;-3.49;84.70
55733;BME280;41637;52.364;9.910;2022-12-17T06:31:27;101699.24;;;-3.53;84.45
55733;BME280;41637;52.364;9.910;2022-12-17T06:34:12;101700.54;;;-3.60;84.15
55733;BME280;41637;52.364;9.910;2022-12-17T06:36:57;101698.42;;;-3.63;84.33
55733;BME280;41637;52.364;9.910;2022-12-17T06:39:42;101697.77;;;-3.69;83.99
55733;BME280;41637;52.364;9.910;2022-12-17T06:42:27;101700.98;;;-3.72;84.20
55733;BME280;41637;52.364;9.910;2022-12-17T06:45:12;101700.41;;;-3.70;84.32
55733;BME280;41637;52.364;9.910;2022-12-17T06:48:05;101698.60;;;-3.68;84.40
55733;BME280;41637;52.364;9.910;2022-12-17T06:50:54;101707.76;;;-3.68;84.36
55733;BME280;41637;52.364;9.910;2022-12-17T06:53:40;101704.35;;;-3.64;84.43
55733;BME280;41637;52.364;9.910;2022-12-17T06:56:26;101711.33;;;-3.61;84.33
55733;BME280;41637;52.364;9.910;2022-12-17T06:59:11;101719.02;;;-3.59;84.43
55733;BME280;41637;52.364;9.910;2022-12-17T07:01:58;101721.65;;;-3.56;84.64
55733;BME280;41637;52.364;9.910;2022-12-17T07:04:43;101729.13;;;-3.52;84.54
55733;BME280;41637;52.364;9.910;2022-12-17T07:07:45;101739.25;;;-3.50;84.69
55733;BME280;41637;52.364;9.910;2022-12-17T07:10:30;101742.30;;;-3.49;84.45
55733;BME280;41637;52.364;9.910;2022-12-17T07:13:15;101750.98;;;-3.49;83.92
55733;BME280;41637;52.364;9.910;2022-12-17T07:16:01;101757.60;;;-3.55;83.40
55733;BME280;41637;52.364;9.910;2022-12-17T07:18:46;101760.48;;;-3.63;83.00
55733;BME280;41637;52.364;9.910;2022-12-17T07:21:31;101764.14;;;-3.69;82.59
55733;BME280;41637;52.364;9.910;2022-12-17T07:24:16;101771.55;;;-3.72;82.36
55733;BME280;41637;52.364;9.910;2022-12-17T07:27:01;101773.71;;;-3.75;82.24
55733;BME280;41637;52.364;9.910;2022-12-17T07:29:47;101778.15;;;-3.78;81.80
55733;BME280;41637;52.364;9.910;2022-12-17T07:32:32;101779.39;;;-3.79;81.74
55733;BME280;41637;52.364;9.910;2022-12-17T07:35:17;101780.52;;;-3.81;81.44
55733;BME280;41637;52.364;9.910;2022-12-17T07:38:03;101791.09;;;-3.82;81.65
55733;BME280;41637;52.364;9.910;2022-12-17T07:40:49;101792.70;;;-3.84;81.64
55733;BME280;41637;52.364;9.910;2022-12-17T07:43:34;101794.08;;;-3.88;81.46
55733;BME280;41637;52.364;9.910;2022-12-17T07:46:19;101794.42;;;-3.93;81.42
55733;BME280;41637;52.364;9.910;2022-12-17T07:49:04;101796.75;;;-3.96;81.47
55733;BME280;41637;52.364;9.910;2022-12-17T07:51:52;101802.55;;;-3.94;81.61
55733;BME280;41637;52.364;9.910;2022-12-17T07:54:37;101804.41;;;-3.92;81.67
55733;BME280;41637;52.364;9.910;2022-12-17T07:57:24;101803.19;;;-3.92;81.75
55733;BME280;41637;52.364;9.910;2022-12-17T08:00:10;101807.30;;;-3.91;81.85
55733;BME280;41637;52.364;9.910;2022-12-17T08:02:58;101810.67;;;-3.89;82.00
55733;BME280;41637;52.364;9.910;2022-12-17T08:05:43;101815.17;;;-3.89;81.75
55733;BME280;41637;52.364;9.910;2022-12-17T08:08:29;101820.44;;;-3.86;81.99
55733;BME280;41637;52.364;9.910;2022-12-17T08:11:14;101823.88;;;-3.86;81.56
55733;BME280;41637;52.364;9.910;2022-12-17T08:13:59;101823.34;;;-3.85;81.39
55733;BME280;41637;52.364;9.910;2022-12-17T08:16:49;101828.01;;;-3.85;81.13
55733;BME280;41637;52.364;9.910;2022-12-17T08:19:34;101831.61;;;-3.84;81.25
55733;BME280;41637;52.364;9.910;2022-12-17T08:22:19;101833.09;;;-3.82;81.22
55733;BME280;41637;52.364;9.910;2022-12-17T08:25:04;101834.48;;;-3.78;81.01
55733;BME280;41637;52.364;9.910;2022-12-17T08:27:54;101839.50;;;-3.73;81.13
55733;BME280;41637;52.364;9.910;2022-12-17T08:30:59;101841.67;;;-3.65;81.28
55733;BME280;41637;52.364;9.910;2022-12-17T08:33:44;101846.02;;;-3.57;81.16
55733;BME280;41637;52.364;9.910;2022-12-17T08:36:33;101851.40;;;-3.48;80.86
55733;BME280;41637;52.364;9.910;2022-12-17T08:39:18;101847.14;;;-3.40;80.79
55733;BME280;41637;52.364;9.910;2022-12-17T08:42:03;101851.77;;;-3.34;80.34
55733;BME280;41637;52.364;9.910;2022-12-17T08:44:48;101858.01;;;-3.30;79.61
55733;BME280;41637;52.364;9.910;2022-12-17T08:47:32;101855.81;;;-3.32;79.02
55733;BME280;41637;52.364;9.910;2022-12-17T08:50:18;101857.91;;;-3.33;78.71
55733;BME280;41637;52.364;9.910;2022-12-17T08:53:03;101859.99;;;-3.33;78.99
55733;BME280;41637;52.364;9.910;2022-12-17T08:55:48;101857.18;;;-3.31;79.07
55733;BME280;41637;52.364;9.910;2022-12-17T08:58:34;101852.48;;;-3.31;79.15
55733;BME280;41637;52.364;9.910;2022-12-17T09:01:24;101855.36;;;-3.30;78.83
55733;BME280;41637;52.364;9.910;2022-12-17T09:04:09;101859.48;;;-3.29;79.27
55733;BME280;41637;52.364;9.910;2022-12-17T09:06:55;101860.20;;;-3.29;79.00
55733;BME280;41637;52.364;9.910;2022-12-17T09:09:40;101869.15;;;-3.32;78.63
55733;BME280;41637;52.364;9.910;2022-12-17T09:12:25;101862.98;;;-3.34;78.75
55733;BME280;41637;52.364;9.910;2022-12-17T09:15:10;101865.30;;;-3.36;78.83
55733;BME280;41637;52.364;9.910;2022-12-17T09:17:55;101869.48;;;-3.36;78.62
55733;BME280;41637;52.364;9.910;2022-12-17T09:20:39;101868.63;;;-3.37;78.56
55733;BME280;41637;52.364;9.910;2022-12-17T09:23:25;101873.91;;;-3.35;78.82
55733;BME280;41637;52.364;9.910;2022-12-17T09:26:10;101878.29;;;-3.32;79.00
55733;BME280;41637;52.364;9.910;2022-12-17T09:28:55;101881.55;;;-3.26;78.87
55733;BME280;41637;52.364;9.910;2022-12-17T09:31:40;101885.19;;;-3.21;78.85
55733;BME280;41637;52.364;9.910;2022-12-17T09:34:25;101885.47;;;-3.15;78.72
55733;BME280;41637;52.364;9.910;2022-12-17T09:37:10;101880.38;;;-3.08;78.78
55733;BME280;41637;52.364;9.910;2022-12-17T09:39:55;101878.36;;;-3.01;78.80
55733;BME280;41637;52.364;9.910;2022-12-17T09:42:49;101877.96;;;-2.95;78.50
55733;BME280;41637;52.364;9.910;2022-12-17T09:48:55;101881.95;;;-2.81;78.45
55733;BME280;41637;52.364;9.910;2022-12-17T09:51:43;101886.86;;;-2.70;78.48
55733;BME280;41637;52.364;9.910;2022-12-17T09:54:39;101887.23;;;-2.61;78.18
55733;BME280;41637;52.364;9.910;2022-12-17T09:57:30;101886.77;;;-2.54;78.04
55733;BME280;41637;52.364;9.910;2022-12-17T10:03:17;101891.93;;;-2.36;77.78
55733;BME280;41637;52.364;9.910;2022-12-17T10:06:08;101897.85;;;-2.29;77.50
55733;BME280;41637;52.364;9.910;2022-12-17T10:08:58;101907.70;;;-2.23;77.45
55733;BME280;41637;52.364;9.910;2022-12-17T10:11:44;101913.40;;;-2.14;77.45
55733;BME280;41637;52.364;9.910;2022-12-17T10:14:29;101919.46;;;-2.06;77.59
55733;BME280;41637;52.364;9.910;2022-12-17T10:17:20;101917.12;;;-1.95;77.21
55733;BME280;41637;52.364;9.910;2022-12-17T10:20:23;101914.16;;;-1.82;77.39
55733;BME280;41637;52.364;9.910;2022-12-17T10:23:08;101911.13;;;-1.68;77.24
55733;BME280;41637;52.364;9.910;2022-12-17T10:25:55;101914.94;;;-1.56;77.08
55733;BME280;41637;52.364;9.910;2022-12-17T10:28:40;101914.97;;;-1.45;76.97
55733;BME280;41637;52.364;9.910;2022-12-17T10:31:29;101919.60;;;-1.31;77.15
55733;BME280;41637;52.364;9.910;2022-12-17T10:34:17;101916.27;;;-1.19;76.77
55733;BME280;41637;52.364;9.910;2022-12-17T10:37:04;101920.33;;;-1.05;76.65
55733;BME280;41637;52.364;9.910;2022-12-17T10:39:58;101915.89;;;-0.96;75.83
55733;BME280;41637;52.364;9.910;2022-12-17T10:42:44;101911.78;;;-0.86;75.83
55733;BME280;41637;52.364;9.910;2022-12-17T10:45:32;101916.05;;;-0.76;75.41
55733;BME280;41637;52.364;9.910;2022-12-17T10:48:25;101912.23;;;-0.65;75.23
55733;BME280;41637;52.364;9.910;2022-12-17T10:51:28;101914.59;;;-0.53;74.60
55733;BME280;41637;52.364;9.910;2022-12-17T10:54:28;101907.39;;;-0.41;74.35
55733;BME280;41637;52.364;9.910;2022-12-17T10:57:36;101908.21;;;-0.25;74.45
55733;BME280;41637;52.364;9.910;2022-12-17T11:00:32;101904.20;;;-0.07;74.42
55733;BME280;41637;52.364;9.910;2022-12-17T11:03:31;101907.17;;;0.07;73.71
55733;BME280;41637;52.364;9.910;2022-12-17T11:06:30;101910.96;;;0.15;73.15
55733;BME280;41637;52.364;9.910;2022-12-17T11:09:33;101909.48;;;0.30;73.11
55733;BME280;41637;52.364;9.910;2022-12-17T11:12:24;101911.33;;;0.41;72.64
55733;BME280;41637;52.364;9.910;2022-12-17T11:15:17;101908.15;;;0.49;72.18
55733;BME280;41637;52.364;9.910;2022-12-17T11:18:03;101910.44;;;0.55;71.71
55733;BME280;41637;52.364;9.910;2022-12-17T11:21:01;101914.44;;;0.62;71.23
55733;BME280;41637;52.364;9.910;2022-12-17T11:23:48;101921.08;;;0.78;70.79
55733;BME280;41637;52.364;9.910;2022-12-17T11:26:57;101919.52;;;0.98;70.33
55733;BME280;41637;52.364;9.910;2022-12-17T11:29:43;101920.96;;;1.10;70.29
55733;BME280;41637;52.364;9.910;2022-12-17T11:35:19;101921.50;;;1.22;69.53
55733;BME280;41637;52.364;9.910;2022-12-17T11:41:27;101919.25;;;1.41;68.89
55733;BME280;41637;52.364;9.910;2022-12-17T11:47:17;101926.98;;;1.49;68.07
55733;BME280;41637;52.364;9.910;2022-12-17T11:53:33;101917.82;;;1.79;68.31
55733;BME280;41637;52.364;9.910;2022-12-17T11:56:28;101917.95;;;2.42;68.42
55733;BME280;41637;52.364;9.910;2022-12-17T11:59:34;101917.67;;;3.37;66.87
55733;BME280;41637;52.364;9.910;2022-12-17T12:02:41;101920.09;;;3.81;63.55
55733;BME280;41637;52.364;9.910;2022-12-17T12:05:52;101915.21;;;4.23;63.15
55733;BME280;41637;52.364;9.910;2022-12-17T12:09:04;101916.45;;;4.43;60.75
55733;BME280;41637;52.364;9.910;2022-12-17T12:15:05;101917.45;;;4.41;58.13
55733;BME280;41637;52.364;9.910;2022-12-17T12:18:08;101911.59;;;4.56;57.70
55733;BME280;41637;52.364;9.910;2022-12-17T12:21:13;101916.91;;;4.82;58.51
55733;BME280;41637;52.364;9.910;2022-12-17T12:24:25;101914.52;;;5.67;56.69
55733;BME280;41637;52.364;9.910;2022-12-17T12:27:40;101917.00;;;6.45;53.07
55733;BME280;41637;52.364;9.910;2022-12-17T12:34:23;101918.92;;;7.01;50.81
55733;BME280;41637;52.364;9.910;2022-12-17T12:36:47;101918.25;;;7.34;48.96
55733;BME280;41637;52.364;9.910;2022-12-17T12:39:39;101913.02;;;8.15;48.03
55733;BME280;41637;52.364;9.910;2022-12-17T12:42:40;101910.97;;;9.21;46.23
55733;BME280;41637;52.364;9.910;2022-12-17T12:49:04;101919.55;;;11.15;43.06
55733;BME280;41637;52.364;9.910;2022-12-17T12:51:53;101918.49;;;12.05;41.18
55733;BME280;41637;52.364;9.910;2022-12-17T12:57:39;101917.88;;;13.15;38.99
55733;BME280;41637;52.364;9.910;2022-12-17T13:06:05;101920.25;;;13.04;35.88
55733;BME280;41637;52.364;9.910;2022-12-17T13:08:32;101920.73;;;12.88;35.91
55733;BME280;41637;52.364;9.910;2022-12-17T13:11:09;101919.67;;;12.84;36.39
55733;BME280;41637;52.364;9.910;2022-12-17T13:13:40;101919.88;;;12.98;36.14
55733;BME280;41637;52.364;9.910;2022-12-17T13:16:31;101920.02;;;13.30;36.94
55733;BME280;41637;52.364;9.910;2022-12-17T13:21:47;101919.38;;;13.73;34.11
55733;BME280;41637;52.364;9.910;2022-12-17T13:24:23;101923.19;;;13.96;34.19
55733;BME280;41637;52.364;9.910;2022-12-17T13:26:51;101923.54;;;14.12;33.98
55733;BME280;41637;52.364;9.910;2022-12-17T13:29:31;101922.02;;;14.32;34.21
55733;BME280;41637;52.364;9.910;2022-12-17T13:32:19;101924.42;;;14.56;33.31
55733;BME280;41637;52.364;9.910;2022-12-17T13:35:35;101925.48;;;14.44;33.23
55733;BME280;41637;52.364;9.910;2022-12-17T13:37:58;101928.73;;;14.23;33.56
55733;BME280;41637;52.364;9.910;2022-12-17T13:40:33;101930.66;;;14.30;34.25
55733;BME280;41637;52.364;9.910;2022-12-17T13:43:20;101933.52;;;14.38;33.97
55733;BME280;41637;52.364;9.910;2022-12-17T13:45:50;101938.67;;;14.26;33.54
55733;BME280;41637;52.364;9.910;2022-12-17T13:48:23;101943.28;;;14.18;34.12
55733;BME280;41637;52.364;9.910;2022-12-17T13:51:19;101946.36;;;14.15;33.30
55733;BME280;41637;52.364;9.910;2022-12-17T13:54:00;101947.41;;;14.16;33.90
55733;BME280;41637;52.364;9.910;2022-12-17T13:56:30;101946.88;;;14.21;34.13
55733;BME280;41637;52.364;9.910;2022-12-17T13:58:58;101948.21;;;14.20;33.78
55733;BME280;41637;52.364;9.910;2022-12-17T14:01:51;101943.69;;;14.21;33.33
55733;BME280;41637;52.364;9.910;2022-12-17T14:04:28;101946.05;;;14.32;32.84
55733;BME280;41637;52.364;9.910;2022-12-17T14:06:57;101946.27;;;14.53;32.42
55733;BME280;41637;52.364;9.910;2022-12-17T14:09:34;101953.48;;;14.75;32.81
55733;BME280;41637;52.364;9.910;2022-12-17T14:12:03;101953.14;;;14.96;32.47
55733;BME280;41637;52.364;9.910;2022-12-17T14:15:18;101952.70;;;15.00;32.06
55733;BME280;41637;52.364;9.910;2022-12-17T14:17:47;101953.84;;;14.97;31.97
55733;BME280;41637;52.364;9.910;2022-12-17T14:20:17;101958.42;;;14.84;31.97
55733;BME280;41637;52.364;9.910;2022-12-17T14:22:58;101956.65;;;14.59;31.98
55733;BME280;41637;52.364;9.910;2022-12-17T14:25:29;101957.78;;;14.39;32.52
55733;BME280;41637;52.364;9.910;2022-12-17T14:28:00;101964.63;;;14.26;32.39
55733;BME280;41637;52.364;9.910;2022-12-17T14:33:01;101972.63;;;13.52;32.30
55733;BME280;41637;52.364;9.910;2022-12-17T14:35:29;101972.90;;;13.19;32.79
55733;BME280;41637;52.364;9.910;2022-12-17T14:37:57;101972.39;;;13.00;33.27
55733;BME280;41637;52.364;9.910;2022-12-17T14:40:24;101971.50;;;12.72;33.18
55733;BME280;41637;52.364;9.910;2022-12-17T14:42:56;101971.53;;;12.37;33.34
55733;BME280;41637;52.364;9.910;2022-12-17T14:45:25;101972.02;;;11.93;33.82
55733;BME280;41637;52.364;9.910;2022-12-17T14:48:00;101971.92;;;11.49;34.32
55733;BME280;41637;52.364;9.910;2022-12-17T14:50:32;101974.70;;;10.75;34.61
55733;BME280;41637;52.364;9.910;2022-12-17T14:53:21;101975.45;;;9.50;35.41
55733;BME280;41637;52.364;9.910;2022-12-17T14:55:54;101985.02;;;8.24;37.02
55733;BME280;41637;52.364;9.910;2022-12-17T14:58:23;101987.16;;;7.28;38.58
55733;BME280;41637;52.364;9.910;2022-12-17T15:00:54;101985.64;;;6.43;39.95
55733;BME280;41637;52.364;9.910;2022-12-17T15:03:24;101984.14;;;5.70;41.18
55733;BME280;41637;52.364;9.910;2022-12-17T15:06:04;101984.02;;;4.96;42.27
55733;BME280;41637;52.364;9.910;2022-12-17T15:08:42;101983.91;;;4.30;43.85
55733;BME280;41637;52.364;9.910;2022-12-17T15:11:12;101988.55;;;3.72;45.08
55733;BME280;41637;52.364;9.910;2022-12-17T15:13:39;101992.70;;;3.26;46.38
55733;BME280;41637;52.364;9.910;2022-12-17T15:16:06;101987.91;;;2.81;47.30
55733;BME280;41637;52.364;9.910;2022-12-17T15:18:33;101986.23;;;2.42;48.72